sensor_id;sensor_type;location;lat;lon;timestamp;P1;durP1;ratioP1;P2;durP2;ratioP2
23115;SDS011;11727;52.134;5.052;2022-12-18T00:02:13;60.92;;;16.30;;
23115;SDS011;11727;52.134;5.052;2022-12-18T00:04:39;47.67;;;13.73;;
23115;SDS011;11727;52.134;5.052;2022-12-18T00:07:05;71.25;;;18.25;;
23115;SDS011;11727;52.134;5.052;2022-12-18T00:09:31;51.08;;;13.90;;
23115;SDS011;11727;52.134;5.052;2022-12-18T00:11:56;55.05;;;14.18;;
23115;SDS011;11727;52.134;5.052;2022-12-18T00:14:23;39.90;;;10.85;;
23115;SDS011;11727;52.134;5.052;2022-12-18T00:16:49;51.75;;;13.88;;
23115;SDS011;11727;52.134;5.052;2022-12-18T00:19:14;40.22;;;13.30;;
23115;SDS011;11727;52.134;5.052;2022-12-18T00:21:40;51.03;;;14.18;;
23115;SDS011;11727;52.134;5.052;2022-12-18T00:24:07;60.63;;;16.08;;
23115;SDS011;11727;52.134;5.052;2022-12-18T00:26:35;45.78;;;12.88;;
23115;SDS011;11727;52.134;5.052;2022-12-18T00:29:06;39.85;;;13.18;;
23115;SDS011;11727;52.134;5.052;2022-12-18T00:31:35;48.65;;;14.77;;
23115;SDS011;11727;52.134;5.052;2022-12-18T00:34:02;41.70;;;13.05;;
23115;SDS011;11727;52.134;5.052;2022-12-18T00:36:29;43.08;;;14.38;;
23115;SDS011;11727;52.134;5.052;2022-12-18T00:38:57;46.50;;;14.05;;
23115;SDS011;11727;52.134;5.052;2022-12-18T00:41:24;40.67;;;11.00;;
23115;SDS011;11727;52.134;5.052;2022-12-18T00:44:10;47.53;;;15.70;;
23115;SDS011;11727;52.134;5.052;2022-12-18T00:46:37;44.35;;;13.60;;
23115;SDS011;11727;52.134;5.052;2022-12-18T00:49:03;45.38;;;14.52;;
23115;SDS011;11727;52.134;5.052;2022-12-18T00:51:29;43.33;;;12.95;;
23115;SDS011;11727;52.134;5.052;2022-12-18T00:53:55;42.67;;;13.60;;
23115;SDS011;11727;52.134;5.052;2022-12-18T00:56:21;44.60;;;13.48;;
23115;SDS011;11727;52.134;5.052;2022-12-18T00:58:46;51.97;;;13.43;;
23115;SDS011;11727;52.134;5.052;2022-12-18T01:01:12;46.92;;;12.98;;
23115;SDS011;11727;52.134;5.052;2022-12-18T01:03:38;41.35;;;14.73;;
23115;SDS011;11727;52.134;5.052;2022-12-18T01:06:07;40.70;;;13.15;;
23115;SDS011;11727;52.134;5.052;2022-12-18T01:08:34;43.72;;;13.98;;
23115;SDS011;11727;52.134;5.052;2022-12-18T01:11:00;43.78;;;12.30;;
23115;SDS011;11727;52.134;5.052;2022-12-18T01:13:31;49.42;;;15.43;;
23115;SDS011;11727;52.134;5.052;2022-12-18T01:15:57;41.53;;;11.73;;
23115;SDS011;11727;52.134;5.052;2022-12-18T01:18:22;39.70;;;13.43;;
23115;SDS011;11727;52.134;5.052;2022-12-18T01:20:48;36.50;;;13.10;;
23115;SDS011;11727;52.134;5.052;2022-12-18T01:23:14;44.42;;;14.65;;
23115;SDS011;11727;52.134;5.052;2022-12-18T01:25:39;39.08;;;13.77;;
23115;SDS011;11727;52.134;5.052;2022-12-18T01:28:05;55.53;;;14.80;;
23115;SDS011;11727;52.134;5.052;2022-12-18T01:30:30;37.80;;;14.52;;
23115;SDS011;11727;52.134;5.052;2022-12-18T01:32:56;49.80;;;13.70;;
23115;SDS011;11727;52.134;5.052;2022-12-18T01:35:22;46.25;;;13.98;;
23115;SDS011;11727;52.134;5.052;2022-12-18T01:37:48;48.92;;;13.40;;
23115;SDS011;11727;52.134;5.052;2022-12-18T01:40:13;43.70;;;13.50;;
23115;SDS011;11727;52.134;5.052;2022-12-18T01:42:40;49.05;;;14.95;;
23115;SDS011;11727;52.134;5.052;2022-12-18T01:47:47;38.33;;;12.80;;
23115;SDS011;11727;52.134;5.052;2022-12-18T01:52:50;48.05;;;15.23;;
23115;SDS011;11727;52.134;5.052;2022-12-18T01:55:19;47.42;;;15.25;;
23115;SDS011;11727;52.134;5.052;2022-12-18T01:57:48;38.60;;;13.30;;
23115;SDS011;11727;52.134;5.052;2022-12-18T02:00:18;46.80;;;14.75;;
23115;SDS011;11727;52.134;5.052;2022-12-18T02:02:46;50.58;;;14.93;;
23115;SDS011;11727;52.134;5.052;2022-12-18T02:05:12;50.05;;;14.73;;
23115;SDS011;11727;52.134;5.052;2022-12-18T02:18:47;37.28;;;11.98;;
23115;SDS011;11727;52.134;5.052;2022-12-18T02:21:25;41.55;;;13.55;;
23115;SDS011;11727;52.134;5.052;2022-12-18T02:24:24;40.17;;;11.20;;
23115;SDS011;11727;52.134;5.052;2022-12-18T02:27:05;51.33;;;12.82;;
23115;SDS011;11727;52.134;5.052;2022-12-18T02:32:10;44.20;;;13.50;;
23115;SDS011;11727;52.134;5.052;2022-12-18T02:34:41;43.38;;;12.65;;
23115;SDS011;11727;52.134;5.052;2022-12-18T02:37:10;35.95;;;12.02;;
23115;SDS011;11727;52.134;5.052;2022-12-18T02:39:40;43.72;;;13.95;;
23115;SDS011;11727;52.134;5.052;2022-12-18T02:42:07;50.10;;;14.65;;
23115;SDS011;11727;52.134;5.052;2022-12-18T02:44:47;41.10;;;14.23;;
23115;SDS011;11727;52.134;5.052;2022-12-18T02:47:15;44.22;;;14.90;;
23115;SDS011;11727;52.134;5.052;2022-12-18T02:49:49;49.53;;;15.13;;
23115;SDS011;11727;52.134;5.052;2022-12-18T02:57:39;49.00;;;14.55;;
23115;SDS011;11727;52.134;5.052;2022-12-18T03:00:12;51.95;;;14.25;;
23115;SDS011;11727;52.134;5.052;2022-12-18T03:02:48;43.08;;;11.77;;
23115;SDS011;11727;52.134;5.052;2022-12-18T03:07:44;49.03;;;13.93;;
23115;SDS011;11727;52.134;5.052;2022-12-18T03:10:19;45.30;;;14.25;;
23115;SDS011;11727;52.134;5.052;2022-12-18T03:12:51;47.63;;;15.43;;
23115;SDS011;11727;52.134;5.052;2022-12-18T03:15:20;37.47;;;13.70;;
23115;SDS011;11727;52.134;5.052;2022-12-18T03:17:52;53.70;;;13.82;;
23115;SDS011;11727;52.134;5.052;2022-12-18T03:20:28;41.83;;;13.90;;
23115;SDS011;11727;52.134;5.052;2022-12-18T03:22:57;45.35;;;15.50;;
23115;SDS011;11727;52.134;5.052;2022-12-18T03:25:29;46.10;;;13.68;;
23115;SDS011;11727;52.134;5.052;2022-12-18T03:27:56;53.38;;;16.05;;
23115;SDS011;11727;52.134;5.052;2022-12-18T03:30:24;43.75;;;13.45;;
23115;SDS011;11727;52.134;5.052;2022-12-18T03:32:58;35.13;;;12.90;;
23115;SDS011;11727;52.134;5.052;2022-12-18T03:35:33;46.42;;;14.48;;
23115;SDS011;11727;52.134;5.052;2022-12-18T03:38:02;57.42;;;14.75;;
23115;SDS011;11727;52.134;5.052;2022-12-18T03:46:02;33.80;;;12.52;;
23115;SDS011;11727;52.134;5.052;2022-12-18T03:48:35;48.63;;;14.00;;
23115;SDS011;11727;52.134;5.052;2022-12-18T03:51:08;36.22;;;11.95;;
23115;SDS011;11727;52.134;5.052;2022-12-18T03:54:01;32.15;;;11.80;;
23115;SDS011;11727;52.134;5.052;2022-12-18T03:56:31;40.28;;;13.80;;
23115;SDS011;11727;52.134;5.052;2022-12-18T03:58:59;36.40;;;11.98;;
23115;SDS011;11727;52.134;5.052;2022-12-18T04:01:30;43.67;;;12.35;;
23115;SDS011;11727;52.134;5.052;2022-12-18T04:04:01;44.28;;;12.57;;
23115;SDS011;11727;52.134;5.052;2022-12-18T04:06:29;35.45;;;12.27;;
23115;SDS011;11727;52.134;5.052;2022-12-18T04:09:00;35.72;;;12.38;;
23115;SDS011;11727;52.134;5.052;2022-12-18T04:11:26;44.45;;;13.60;;
23115;SDS011;11727;52.134;5.052;2022-12-18T04:13:54;41.83;;;14.20;;
23115;SDS011;11727;52.134;5.052;2022-12-18T04:16:22;40.75;;;11.40;;
23115;SDS011;11727;52.134;5.052;2022-12-18T04:18:48;48.50;;;12.77;;
23115;SDS011;11727;52.134;5.052;2022-12-18T04:21:14;33.13;;;11.65;;
23115;SDS011;11727;52.134;5.052;2022-12-18T04:23:39;41.40;;;13.82;;
23115;SDS011;11727;52.134;5.052;2022-12-18T04:26:05;45.47;;;12.80;;
23115;SDS011;11727;52.134;5.052;2022-12-18T04:28:30;44.55;;;14.10;;
23115;SDS011;11727;52.134;5.052;2022-12-18T04:30:56;32.72;;;11.48;;
23115;SDS011;11727;52.134;5.052;2022-12-18T04:33:22;35.00;;;12.63;;
23115;SDS011;11727;52.134;5.052;2022-12-18T04:35:47;31.58;;;12.10;;
23115;SDS011;11727;52.134;5.052;2022-12-18T04:38:13;30.92;;;12.98;;
23115;SDS011;11727;52.134;5.052;2022-12-18T04:40:38;41.25;;;13.68;;
23115;SDS011;11727;52.134;5.052;2022-12-18T04:43:04;28.77;;;11.10;;
23115;SDS011;11727;52.134;5.052;2022-12-18T04:45:30;32.83;;;12.00;;
23115;SDS011;11727;52.134;5.052;2022-12-18T04:47:57;30.38;;;11.57;;
23115;SDS011;11727;52.134;5.052;2022-12-18T04:50:23;31.30;;;12.30;;
23115;SDS011;11727;52.134;5.052;2022-12-18T04:52:49;34.00;;;13.05;;
23115;SDS011;11727;52.134;5.052;2022-12-18T04:55:14;36.28;;;11.50;;
23115;SDS011;11727;52.134;5.052;2022-12-18T04:57:40;39.28;;;12.50;;
23115;SDS011;11727;52.134;5.052;2022-12-18T05:00:06;35.28;;;12.07;;
23115;SDS011;11727;52.134;5.052;2022-12-18T05:02:32;36.80;;;12.02;;
23115;SDS011;11727;52.134;5.052;2022-12-18T05:04:58;34.28;;;12.55;;
23115;SDS011;11727;52.134;5.052;2022-12-18T05:07:23;36.42;;;13.30;;
23115;SDS011;11727;52.134;5.052;2022-12-18T05:09:49;35.75;;;12.77;;
23115;SDS011;11727;52.134;5.052;2022-12-18T05:12:14;36.80;;;12.32;;
23115;SDS011;11727;52.134;5.052;2022-12-18T05:14:40;32.15;;;11.35;;
23115;SDS011;11727;52.134;5.052;2022-12-18T05:17:06;28.60;;;11.60;;
23115;SDS011;11727;52.134;5.052;2022-12-18T05:19:31;33.75;;;11.93;;
23115;SDS011;11727;52.134;5.052;2022-12-18T05:21:57;29.40;;;11.60;;
23115;SDS011;11727;52.134;5.052;2022-12-18T05:24:23;34.60;;;11.65;;
23115;SDS011;11727;52.134;5.052;2022-12-18T05:26:48;35.17;;;11.45;;
23115;SDS011;11727;52.134;5.052;2022-12-18T05:29:14;38.38;;;12.82;;
23115;SDS011;11727;52.134;5.052;2022-12-18T05:31:40;34.38;;;13.00;;
23115;SDS011;11727;52.134;5.052;2022-12-18T05:34:05;24.95;;;10.82;;
23115;SDS011;11727;52.134;5.052;2022-12-18T05:36:31;28.77;;;11.18;;
23115;SDS011;11727;52.134;5.052;2022-12-18T05:38:56;26.23;;;9.80;;
23115;SDS011;11727;52.134;5.052;2022-12-18T05:41:22;38.97;;;11.77;;
23115;SDS011;11727;52.134;5.052;2022-12-18T05:43:48;38.33;;;10.38;;
23115;SDS011;11727;52.134;5.052;2022-12-18T05:46:14;19.95;;;8.75;;
23115;SDS011;11727;52.134;5.052;2022-12-18T05:48:42;29.42;;;9.68;;
23115;SDS011;11727;52.134;5.052;2022-12-18T05:51:09;31.60;;;10.10;;
23115;SDS011;11727;52.134;5.052;2022-12-18T05:53:37;18.98;;;8.05;;
23115;SDS011;11727;52.134;5.052;2022-12-18T05:56:04;28.95;;;9.43;;
23115;SDS011;11727;52.134;5.052;2022-12-18T05:58:32;25.83;;;8.10;;
23115;SDS011;11727;52.134;5.052;2022-12-18T06:01:05;27.30;;;9.65;;
23115;SDS011;11727;52.134;5.052;2022-12-18T06:03:35;29.10;;;9.80;;
23115;SDS011;11727;52.134;5.052;2022-12-18T06:06:01;26.45;;;9.98;;
23115;SDS011;11727;52.134;5.052;2022-12-18T06:08:27;20.65;;;8.77;;
23115;SDS011;11727;52.134;5.052;2022-12-18T06:10:53;18.65;;;7.50;;
23115;SDS011;11727;52.134;5.052;2022-12-18T06:13:19;20.35;;;7.28;;
23115;SDS011;11727;52.134;5.052;2022-12-18T06:15:45;24.08;;;7.22;;
23115;SDS011;11727;52.134;5.052;2022-12-18T06:18:11;18.58;;;8.15;;
23115;SDS011;11727;52.134;5.052;2022-12-18T06:20:36;19.50;;;7.50;;
23115;SDS011;11727;52.134;5.052;2022-12-18T06:23:04;18.50;;;6.88;;
23115;SDS011;11727;52.134;5.052;2022-12-18T06:25:30;25.77;;;7.30;;
23115;SDS011;11727;52.134;5.052;2022-12-18T06:27:56;22.50;;;9.50;;
23115;SDS011;11727;52.134;5.052;2022-12-18T06:30:22;21.13;;;8.15;;
23115;SDS011;11727;52.134;5.052;2022-12-18T06:32:48;22.88;;;8.35;;
23115;SDS011;11727;52.134;5.052;2022-12-18T06:35:14;23.08;;;7.97;;
23115;SDS011;11727;52.134;5.052;2022-12-18T06:37:40;20.75;;;7.60;;
23115;SDS011;11727;52.134;5.052;2022-12-18T06:40:06;15.65;;;6.55;;
23115;SDS011;11727;52.134;5.052;2022-12-18T06:42:32;20.83;;;5.80;;
23115;SDS011;11727;52.134;5.052;2022-12-18T06:44:57;23.75;;;8.52;;
23115;SDS011;11727;52.134;5.052;2022-12-18T06:47:23;15.95;;;7.00;;
23115;SDS011;11727;52.134;5.052;2022-12-18T06:49:49;19.38;;;8.13;;
23115;SDS011;11727;52.134;5.052;2022-12-18T06:52:14;24.92;;;7.72;;
23115;SDS011;11727;52.134;5.052;2022-12-18T06:54:40;26.38;;;8.27;;
23115;SDS011;11727;52.134;5.052;2022-12-18T06:57:05;23.25;;;7.82;;
23115;SDS011;11727;52.134;5.052;2022-12-18T06:59:31;20.67;;;7.15;;
23115;SDS011;11727;52.134;5.052;2022-12-18T07:01:56;21.77;;;7.50;;
23115;SDS011;11727;52.134;5.052;2022-12-18T07:04:26;13.57;;;6.90;;
23115;SDS011;11727;52.134;5.052;2022-12-18T07:06:53;18.38;;;7.25;;
23115;SDS011;11727;52.134;5.052;2022-12-18T07:09:19;20.27;;;7.22;;
23115;SDS011;11727;52.134;5.052;2022-12-18T07:11:44;18.38;;;6.28;;
23115;SDS011;11727;52.134;5.052;2022-12-18T07:14:10;13.32;;;7.13;;
23115;SDS011;11727;52.134;5.052;2022-12-18T07:16:36;20.45;;;6.70;;
23115;SDS011;11727;52.134;5.052;2022-12-18T07:19:01;26.60;;;8.25;;
23115;SDS011;11727;52.134;5.052;2022-12-18T07:21:27;19.40;;;6.85;;
23115;SDS011;11727;52.134;5.052;2022-12-18T07:23:52;12.43;;;5.68;;
23115;SDS011;11727;52.134;5.052;2022-12-18T07:26:19;16.77;;;6.95;;
23115;SDS011;11727;52.134;5.052;2022-12-18T07:28:45;19.73;;;6.07;;
23115;SDS011;11727;52.134;5.052;2022-12-18T07:31:13;18.45;;;7.03;;
23115;SDS011;11727;52.134;5.052;2022-12-18T07:33:40;15.02;;;5.97;;
23115;SDS011;11727;52.134;5.052;2022-12-18T07:36:07;18.42;;;6.65;;
23115;SDS011;11727;52.134;5.052;2022-12-18T07:38:34;15.48;;;6.50;;
23115;SDS011;11727;52.134;5.052;2022-12-18T07:41:08;20.70;;;6.55;;
23115;SDS011;11727;52.134;5.052;2022-12-18T07:43:38;17.55;;;6.63;;
23115;SDS011;11727;52.134;5.052;2022-12-18T07:46:04;14.45;;;6.75;;
23115;SDS011;11727;52.134;5.052;2022-12-18T07:48:31;12.60;;;5.38;;
23115;SDS011;11727;52.134;5.052;2022-12-18T07:51:00;16.95;;;7.38;;
23115;SDS011;11727;52.134;5.052;2022-12-18T07:53:26;16.80;;;7.13;;
23115;SDS011;11727;52.134;5.052;2022-12-18T07:55:54;14.95;;;6.45;;
23115;SDS011;11727;52.134;5.052;2022-12-18T07:58:28;15.07;;;6.72;;
23115;SDS011;11727;52.134;5.052;2022-12-18T08:01:01;18.30;;;6.72;;
23115;SDS011;11727;52.134;5.052;2022-12-18T08:03:28;21.80;;;9.18;;
23115;SDS011;11727;52.134;5.052;2022-12-18T08:05:57;18.10;;;7.03;;
23115;SDS011;11727;52.134;5.052;2022-12-18T08:08:26;24.52;;;8.18;;
23115;SDS011;11727;52.134;5.052;2022-12-18T08:10:52;20.50;;;7.85;;
23115;SDS011;11727;52.134;5.052;2022-12-18T08:13:18;18.15;;;7.85;;
23115;SDS011;11727;52.134;5.052;2022-12-18T08:15:44;17.35;;;6.85;;
23115;SDS011;11727;52.134;5.052;2022-12-18T08:18:09;17.08;;;7.80;;
23115;SDS011;11727;52.134;5.052;2022-12-18T08:20:35;18.38;;;6.18;;
23115;SDS011;11727;52.134;5.052;2022-12-18T08:23:01;17.60;;;6.68;;
23115;SDS011;11727;52.134;5.052;2022-12-18T08:25:26;20.17;;;7.32;;
23115;SDS011;11727;52.134;5.052;2022-12-18T08:27:52;15.07;;;5.78;;
23115;SDS011;11727;52.134;5.052;2022-12-18T08:30:17;19.25;;;7.00;;
23115;SDS011;11727;52.134;5.052;2022-12-18T08:32:43;19.40;;;7.60;;
23115;SDS011;11727;52.134;5.052;2022-12-18T08:35:10;20.35;;;7.25;;
23115;SDS011;11727;52.134;5.052;2022-12-18T08:37:37;18.13;;;6.65;;
23115;SDS011;11727;52.134;5.052;2022-12-18T08:40:02;16.83;;;7.15;;
23115;SDS011;11727;52.134;5.052;2022-12-18T08:42:28;22.98;;;7.53;;
23115;SDS011;11727;52.134;5.052;2022-12-18T08:45:12;14.13;;;6.93;;
23115;SDS011;11727;52.134;5.052;2022-12-18T08:47:38;22.58;;;7.95;;
23115;SDS011;11727;52.134;5.052;2022-12-18T08:50:04;25.52;;;6.32;;
23115;SDS011;11727;52.134;5.052;2022-12-18T08:52:31;16.77;;;6.28;;
23115;SDS011;11727;52.134;5.052;2022-12-18T08:54:57;20.17;;;7.28;;
23115;SDS011;11727;52.134;5.052;2022-12-18T08:57:23;16.63;;;6.53;;
23115;SDS011;11727;52.134;5.052;2022-12-18T08:59:48;14.40;;;6.32;;
23115;SDS011;11727;52.134;5.052;2022-12-18T09:02:14;23.05;;;7.18;;
23115;SDS011;11727;52.134;5.052;2022-12-18T09:04:39;18.45;;;7.30;;
23115;SDS011;11727;52.134;5.052;2022-12-18T09:07:05;18.02;;;7.45;;
23115;SDS011;11727;52.134;5.052;2022-12-18T09:09:31;12.35;;;6.63;;
23115;SDS011;11727;52.134;5.052;2022-12-18T09:11:57;22.25;;;8.07;;
23115;SDS011;11727;52.134;5.052;2022-12-18T09:14:23;17.35;;;7.55;;
23115;SDS011;11727;52.134;5.052;2022-12-18T09:16:48;21.67;;;6.28;;
23115;SDS011;11727;52.134;5.052;2022-12-18T09:19:14;22.40;;;8.73;;
23115;SDS011;11727;52.134;5.052;2022-12-18T09:21:39;13.98;;;6.78;;
23115;SDS011;11727;52.134;5.052;2022-12-18T09:24:05;25.80;;;6.60;;
23115;SDS011;11727;52.134;5.052;2022-12-18T09:26:31;19.33;;;6.50;;
23115;SDS011;11727;52.134;5.052;2022-12-18T09:28:57;17.85;;;6.78;;
23115;SDS011;11727;52.134;5.052;2022-12-18T09:31:23;16.10;;;5.72;;
23115;SDS011;11727;52.134;5.052;2022-12-18T09:33:50;15.85;;;6.82;;
23115;SDS011;11727;52.134;5.052;2022-12-18T09:36:16;15.90;;;5.80;;
23115;SDS011;11727;52.134;5.052;2022-12-18T09:38:43;14.93;;;5.95;;
23115;SDS011;11727;52.134;5.052;2022-12-18T09:44:22;19.05;;;7.28;;
23115;SDS011;11727;52.134;5.052;2022-12-18T09:47:03;21.60;;;7.30;;
23115;SDS011;11727;52.134;5.052;2022-12-18T09:49:30;14.23;;;6.82;;
23115;SDS011;11727;52.134;5.052;2022-12-18T09:52:09;12.23;;;7.00;;
23115;SDS011;11727;52.134;5.052;2022-12-18T09:54:48;15.95;;;6.95;;
23115;SDS011;11727;52.134;5.052;2022-12-18T09:57:20;18.40;;;6.30;;
23115;SDS011;11727;52.134;5.052;2022-12-18T09:59:50;20.05;;;7.25;;
23115;SDS011;11727;52.134;5.052;2022-12-18T10:02:24;16.42;;;6.72;;
23115;SDS011;11727;52.134;5.052;2022-12-18T10:10:32;17.90;;;6.93;;
23115;SDS011;11727;52.134;5.052;2022-12-18T10:13:09;14.10;;;6.05;;
23115;SDS011;11727;52.134;5.052;2022-12-18T10:21:13;17.55;;;6.88;;
23115;SDS011;11727;52.134;5.052;2022-12-18T10:26:34;14.52;;;6.43;;
23115;SDS011;11727;52.134;5.052;2022-12-18T10:29:00;13.90;;;5.43;;
23115;SDS011;11727;52.134;5.052;2022-12-18T10:31:26;17.20;;;6.60;;
23115;SDS011;11727;52.134;5.052;2022-12-18T10:33:55;19.88;;;7.25;;
23115;SDS011;11727;52.134;5.052;2022-12-18T10:36:20;15.05;;;6.43;;
23115;SDS011;11727;52.134;5.052;2022-12-18T10:44:09;14.07;;;5.95;;
23115;SDS011;11727;52.134;5.052;2022-12-18T10:46:37;12.10;;;5.82;;
23115;SDS011;11727;52.134;5.052;2022-12-18T10:49:03;18.40;;;6.32;;
23115;SDS011;11727;52.134;5.052;2022-12-18T10:54:02;16.05;;;6.47;;
23115;SDS011;11727;52.134;5.052;2022-12-18T10:56:30;17.98;;;7.18;;
23115;SDS011;11727;52.134;5.052;2022-12-18T10:59:05;16.70;;;6.30;;
23115;SDS011;11727;52.134;5.052;2022-12-18T11:01:49;15.18;;;6.25;;
23115;SDS011;11727;52.134;5.052;2022-12-18T11:04:26;15.13;;;5.78;;
23115;SDS011;11727;52.134;5.052;2022-12-18T11:09:31;15.52;;;6.88;;
23115;SDS011;11727;52.134;5.052;2022-12-18T11:12:02;13.13;;;5.55;;
23115;SDS011;11727;52.134;5.052;2022-12-18T11:14:50;17.92;;;6.20;;
23115;SDS011;11727;52.134;5.052;2022-12-18T11:17:28;11.75;;;5.75;;
23115;SDS011;11727;52.134;5.052;2022-12-18T11:20:00;15.27;;;6.47;;
23115;SDS011;11727;52.134;5.052;2022-12-18T11:22:32;14.45;;;6.05;;
23115;SDS011;11727;52.134;5.052;2022-12-18T11:27:40;12.52;;;5.97;;
23115;SDS011;11727;52.134;5.052;2022-12-18T11:30:25;13.40;;;5.75;;
23115;SDS011;11727;52.134;5.052;2022-12-18T11:35:41;16.27;;;6.47;;
23115;SDS011;11727;52.134;5.052;2022-12-18T11:38:41;17.27;;;5.57;;
23115;SDS011;11727;52.134;5.052;2022-12-18T11:43:59;18.02;;;5.93;;
23115;SDS011;11727;52.134;5.052;2022-12-18T11:46:36;18.35;;;6.68;;
23115;SDS011;11727;52.134;5.052;2022-12-18T11:49:12;10.77;;;5.30;;
23115;SDS011;11727;52.134;5.052;2022-12-18T11:51:48;12.07;;;4.72;;
23115;SDS011;11727;52.134;5.052;2022-12-18T11:54:44;14.50;;;5.18;;
23115;SDS011;11727;52.134;5.052;2022-12-18T11:57:16;18.45;;;6.30;;
23115;SDS011;11727;52.134;5.052;2022-12-18T12:05:11;14.80;;;6.28;;
23115;SDS011;11727;52.134;5.052;2022-12-18T12:08:11;15.53;;;6.57;;
23115;SDS011;11727;52.134;5.052;2022-12-18T12:14:27;19.17;;;7.30;;
23115;SDS011;11727;52.134;5.052;2022-12-18T12:16:37;21.13;;;6.85;;
23115;SDS011;11727;52.134;5.052;2022-12-18T12:25:00;12.75;;;5.45;;
23115;SDS011;11727;52.134;5.052;2022-12-18T12:30:53;15.13;;;6.72;;
23115;SDS011;11727;52.134;5.052;2022-12-18T12:33:36;15.45;;;6.10;;
23115;SDS011;11727;52.134;5.052;2022-12-18T12:36:34;10.57;;;5.25;;
23115;SDS011;11727;52.134;5.052;2022-12-18T12:39:11;16.75;;;6.55;;
23115;SDS011;11727;52.134;5.052;2022-12-18T12:41:41;18.67;;;7.03;;
23115;SDS011;11727;52.134;5.052;2022-12-18T12:44:30;18.60;;;6.15;;
23115;SDS011;11727;52.134;5.052;2022-12-18T12:47:00;14.13;;;6.35;;
23115;SDS011;11727;52.134;5.052;2022-12-18T12:49:32;20.38;;;6.00;;
23115;SDS011;11727;52.134;5.052;2022-12-18T12:52:06;14.73;;;6.28;;
23115;SDS011;11727;52.134;5.052;2022-12-18T12:54:35;15.45;;;6.78;;
23115;SDS011;11727;52.134;5.052;2022-12-18T13:02:48;16.10;;;6.45;;
23115;SDS011;11727;52.134;5.052;2022-12-18T13:08:04;13.68;;;5.72;;
23115;SDS011;11727;52.134;5.052;2022-12-18T13:13:09;16.13;;;7.20;;
23115;SDS011;11727;52.134;5.052;2022-12-18T13:20:34;18.85;;;5.65;;
23115;SDS011;11727;52.134;5.052;2022-12-18T13:23:01;14.93;;;6.72;;
23115;SDS011;11727;52.134;5.052;2022-12-18T13:34:35;25.83;;;5.70;;
23115;SDS011;11727;52.134;5.052;2022-12-18T13:37:51;18.05;;;6.75;;
23115;SDS011;11727;52.134;5.052;2022-12-18T13:46:00;15.35;;;6.30;;
23115;SDS011;11727;52.134;5.052;2022-12-18T13:48:36;17.13;;;6.75;;
23115;SDS011;11727;52.134;5.052;2022-12-18T13:51:03;14.40;;;6.20;;
23115;SDS011;11727;52.134;5.052;2022-12-18T13:53:43;14.32;;;5.82;;
23115;SDS011;11727;52.134;5.052;2022-12-18T13:56:16;14.40;;;6.28;;
23115;SDS011;11727;52.134;5.052;2022-12-18T13:58:46;15.32;;;6.88;;
23115;SDS011;11727;52.134;5.052;2022-12-18T14:01:27;14.35;;;5.95;;
23115;SDS011;11727;52.134;5.052;2022-12-18T14:04:08;15.50;;;6.18;;
23115;SDS011;11727;52.134;5.052;2022-12-18T14:07:12;12.75;;;5.55;;
23115;SDS011;11727;52.134;5.052;2022-12-18T14:09:42;22.80;;;6.63;;
23115;SDS011;11727;52.134;5.052;2022-12-18T14:20:28;16.10;;;6.07;;
23115;SDS011;11727;52.134;5.052;2022-12-18T14:22:56;15.70;;;6.15;;
23115;SDS011;11727;52.134;5.052;2022-12-18T14:25:24;26.03;;;7.37;;
23115;SDS011;11727;52.134;5.052;2022-12-18T14:30:42;20.25;;;6.80;;
23115;SDS011;11727;52.134;5.052;2022-12-18T14:33:10;19.08;;;7.28;;
23115;SDS011;11727;52.134;5.052;2022-12-18T14:35:41;15.80;;;6.55;;
23115;SDS011;11727;52.134;5.052;2022-12-18T14:38:23;17.65;;;6.65;;
23115;SDS011;11727;52.134;5.052;2022-12-18T14:41:03;12.90;;;5.68;;
23115;SDS011;11727;52.134;5.052;2022-12-18T14:43:40;16.83;;;6.85;;
23115;SDS011;11727;52.134;5.052;2022-12-18T14:46:29;18.58;;;7.05;;
23115;SDS011;11727;52.134;5.052;2022-12-18T14:49:27;16.20;;;6.57;;
23115;SDS011;11727;52.134;5.052;2022-12-18T14:51:56;15.52;;;6.88;;
23115;SDS011;11727;52.134;5.052;2022-12-18T14:54:28;17.10;;;6.82;;
23115;SDS011;11727;52.134;5.052;2022-12-18T14:57:40;17.80;;;5.65;;
23115;SDS011;11727;52.134;5.052;2022-12-18T14:59:51;21.13;;;6.57;;
23115;SDS011;11727;52.134;5.052;2022-12-18T15:05:14;20.52;;;6.38;;
23115;SDS011;11727;52.134;5.052;2022-12-18T15:07:53;17.20;;;6.53;;
23115;SDS011;11727;52.134;5.052;2022-12-18T15:10:23;15.55;;;6.55;;
23115;SDS011;11727;52.134;5.052;2022-12-18T15:20:40;22.10;;;8.02;;
23115;SDS011;11727;52.134;5.052;2022-12-18T15:26:05;15.38;;;7.35;;
23115;SDS011;11727;52.134;5.052;2022-12-18T15:28:35;17.42;;;6.90;;
23115;SDS011;11727;52.134;5.052;2022-12-18T15:33:38;16.10;;;6.40;;
23115;SDS011;11727;52.134;5.052;2022-12-18T15:36:09;21.35;;;8.13;;
23115;SDS011;11727;52.134;5.052;2022-12-18T15:38:40;22.58;;;8.77;;
23115;SDS011;11727;52.134;5.052;2022-12-18T15:41:10;14.70;;;6.70;;
23115;SDS011;11727;52.134;5.052;2022-12-18T15:43:38;13.88;;;6.25;;
23115;SDS011;11727;52.134;5.052;2022-12-18T15:46:14;20.27;;;8.50;;
23115;SDS011;11727;52.134;5.052;2022-12-18T15:48:45;17.58;;;6.47;;
23115;SDS011;11727;52.134;5.052;2022-12-18T15:53:58;17.35;;;7.43;;
23115;SDS011;11727;52.134;5.052;2022-12-18T15:56:25;18.05;;;6.97;;
23115;SDS011;11727;52.134;5.052;2022-12-18T15:59:11;19.77;;;6.88;;
23115;SDS011;11727;52.134;5.052;2022-12-18T16:01:42;21.80;;;8.98;;
23115;SDS011;11727;52.134;5.052;2022-12-18T16:04:12;17.38;;;7.63;;
23115;SDS011;11727;52.134;5.052;2022-12-18T16:06:38;16.90;;;6.93;;
23115;SDS011;11727;52.134;5.052;2022-12-18T16:09:04;22.52;;;7.80;;
23115;SDS011;11727;52.134;5.052;2022-12-18T16:11:31;20.73;;;8.55;;
23115;SDS011;11727;52.134;5.052;2022-12-18T16:14:06;19.23;;;7.45;;
23115;SDS011;11727;52.134;5.052;2022-12-18T16:16:37;17.00;;;6.95;;
23115;SDS011;11727;52.134;5.052;2022-12-18T16:19:03;20.45;;;7.45;;
23115;SDS011;11727;52.134;5.052;2022-12-18T16:21:29;19.55;;;7.53;;
23115;SDS011;11727;52.134;5.052;2022-12-18T16:23:54;19.50;;;7.78;;
23115;SDS011;11727;52.134;5.052;2022-12-18T16:26:20;17.50;;;7.15;;
23115;SDS011;11727;52.134;5.052;2022-12-18T16:28:45;19.40;;;7.38;;
23115;SDS011;11727;52.134;5.052;2022-12-18T16:31:11;24.25;;;8.18;;
23115;SDS011;11727;52.134;5.052;2022-12-18T16:33:36;21.25;;;8.70;;
23115;SDS011;11727;52.134;5.052;2022-12-18T16:36:02;19.38;;;7.45;;
23115;SDS011;11727;52.134;5.052;2022-12-18T16:38:28;19.67;;;8.10;;
23115;SDS011;11727;52.134;5.052;2022-12-18T16:40:53;18.15;;;8.07;;
23115;SDS011;11727;52.134;5.052;2022-12-18T16:43:37;22.58;;;7.95;;
23115;SDS011;11727;52.134;5.052;2022-12-18T16:46:03;15.77;;;7.05;;
23115;SDS011;11727;52.134;5.052;2022-12-18T16:48:29;22.45;;;8.68;;
23115;SDS011;11727;52.134;5.052;2022-12-18T16:50:59;22.80;;;8.52;;
23115;SDS011;11727;52.134;5.052;2022-12-18T16:53:26;18.58;;;7.43;;
23115;SDS011;11727;52.134;5.052;2022-12-18T16:55:55;20.65;;;8.95;;
23115;SDS011;11727;52.134;5.052;2022-12-18T16:58:21;16.77;;;6.25;;
23115;SDS011;11727;52.134;5.052;2022-12-18T17:00:47;23.58;;;8.40;;
23115;SDS011;11727;52.134;5.052;2022-12-18T17:03:12;19.02;;;8.13;;
23115;SDS011;11727;52.134;5.052;2022-12-18T17:05:38;22.23;;;8.95;;
23115;SDS011;11727;52.134;5.052;2022-12-18T17:08:05;17.02;;;6.72;;
23115;SDS011;11727;52.134;5.052;2022-12-18T17:10:31;16.45;;;6.05;;
23115;SDS011;11727;52.134;5.052;2022-12-18T17:12:58;22.30;;;8.57;;